sensor_id;sensor_type;location;lat;lon;timestamp;temperature;humidity
21861;DHT22;11095;48.066;8.540;2022-08-19T00:02:05;16.70;99.90
21861;DHT22;11095;48.066;8.540;2022-08-19T00:04:34;16.70;99.90
21861;DHT22;11095;48.066;8.540;2022-08-19T00:07:02;16.70;99.90
21861;DHT22;11095;48.066;8.540;2022-08-19T00:09:29;16.70;99.90
21861;DHT22;11095;48.066;8.540;2022-08-19T00:11:55;16.70;99.90
21861;DHT22;11095;48.066;8.540;2022-08-19T00:14:22;16.60;99.90
21861;DHT22;11095;48.066;8.540;2022-08-19T00:16:49;16.60;99.90
21861;DHT22;11095;48.066;8.540;2022-08-19T00:19:16;16.60;99.90
21861;DHT22;11095;48.066;8.540;2022-08-19T00:21:42;16.60;99.90
21861;DHT22;11095;48.066;8.540;2022-08-19T00:24:10;16.50;99.90
21861;DHT22;11095;48.066;8.540;2022-08-19T00:26:38;16.40;99.90
21861;DHT22;11095;48.066;8.540;2022-08-19T00:29:05;16.40;99.90
21861;DHT22;11095;48.066;8.540;2022-08-19T00:31:31;16.30;99.90
21861;DHT22;11095;48.066;8.540;2022-08-19T00:33:57;16.30;99.90
21861;DHT22;11095;48.066;8.540;2022-08-19T00:36:23;16.30;99.90
21861;DHT22;11095;48.066;8.540;2022-08-19T00:38:49;16.30;99.90
21861;DHT22;11095;48.066;8.540;2022-08-19T00:41:19;16.30;99.90
21861;DHT22;11095;48.066;8.540;2022-08-19T00:44:14;16.30;99.90
21861;DHT22;11095;48.066;8.540;2022-08-19T00:46:42;16.30;99.90
21861;DHT22;11095;48.066;8.540;2022-08-19T00:49:17;16.30;99.90
21861;DHT22;11095;48.066;8.540;2022-08-19T00:51:46;16.30;99.90
21861;DHT22;11095;48.066;8.540;2022-08-19T00:54:13;16.30;99.90
21861;DHT22;11095;48.066;8.540;2022-08-19T00:56:40;16.30;99.90
21861;DHT22;11095;48.066;8.540;2022-08-19T00:59:06;16.30;99.90
21861;DHT22;11095;48.066;8.540;2022-08-19T01:01:38;16.30;99.90
21861;DHT22;11095;48.066;8.540;2022-08-19T01:04:04;16.30;99.90
21861;DHT22;11095;48.066;8.540;2022-08-19T01:06:31;16.30;99.90
21861;DHT22;11095;48.066;8.540;2022-08-19T01:08:58;16.30;99.90
21861;DHT22;11095;48.066;8.540;2022-08-19T01:11:24;16.30;99.90
21861;DHT22;11095;48.066;8.540;2022-08-19T01:13:52;16.30;99.90
21861;DHT22;11095;48.066;8.540;2022-08-19T01:16:20;16.20;99.90
21861;DHT22;11095;48.066;8.540;2022-08-19T01:18:46;16.30;99.90
21861;DHT22;11095;48.066;8.540;2022-08-19T01:21:21;16.30;99.90
21861;DHT22;11095;48.066;8.540;2022-08-19T01:23:47;16.30;99.90
21861;DHT22;11095;48.066;8.540;2022-08-19T01:26:19;16.30;99.90
21861;DHT22;11095;48.066;8.540;2022-08-19T01:28:47;16.30;99.90
21861;DHT22;11095;48.066;8.540;2022-08-19T01:31:17;16.30;99.90
21861;DHT22;11095;48.066;8.540;2022-08-19T01:33:44;16.30;99.90
21861;DHT22;11095;48.066;8.540;2022-08-19T01:36:13;16.30;99.90
21861;DHT22;11095;48.066;8.540;2022-08-19T01:38:41;16.30;99.90
21861;DHT22;11095;48.066;8.540;2022-08-19T01:41:11;16.30;99.90
21861;DHT22;11095;48.066;8.540;2022-08-19T01:43:38;16.30;99.90
21861;DHT22;11095;48.066;8.540;2022-08-19T01:46:04;16.30;99.90
21861;DHT22;11095;48.066;8.540;2022-08-19T01:48:35;16.30;99.90
21861;DHT22;11095;48.066;8.540;2022-08-19T01:51:01;16.30;99.90
21861;DHT22;11095;48.066;8.540;2022-08-19T01:53:27;16.30;99.90
21861;DHT22;11095;48.066;8.540;2022-08-19T01:55:53;16.30;99.90
21861;DHT22;11095;48.066;8.540;2022-08-19T01:58:21;16.30;99.90
21861;DHT22;11095;48.066;8.540;2022-08-19T02:00:48;16.30;99.90
21861;DHT22;11095;48.066;8.540;2022-08-19T02:03:14;16.30;99.90
21861;DHT22;11095;48.066;8.540;2022-08-19T02:05:40;16.30;99.90
21861;DHT22;11095;48.066;8.540;2022-08-19T02:08:07;16.30;99.90
21861;DHT22;11095;48.066;8.540;2022-08-19T02:10:32;16.30;99.90
21861;DHT22;11095;48.066;8.540;2022-08-19T02:12:58;16.30;99.90
21861;DHT22;11095;48.066;8.540;2022-08-19T02:15:24;16.30;99.90
21861;DHT22;11095;48.066;8.540;2022-08-19T02:17:51;16.30;99.90
21861;DHT22;11095;48.066;8.540;2022-08-19T02:20:17;16.30;99.90
21861;DHT22;11095;48.066;8.540;2022-08-19T02:22:43;16.30;99.90
21861;DHT22;11095;48.066;8.540;2022-08-19T02:25:13;16.30;99.90
21861;DHT22;11095;48.066;8.540;2022-08-19T02:27:39;16.30;99.90
21861;DHT22;11095;48.066;8.540;2022-08-19T02:30:07;16.30;99.90
21861;DHT22;11095;48.066;8.540;2022-08-19T02:32:33;16.30;99.90
21861;DHT22;11095;48.066;8.540;2022-08-19T02:34:59;16.30;99.90
21861;DHT22;11095;48.066;8.540;2022-08-19T02:37:25;16.20;99.90
21861;DHT22;11095;48.066;8.540;2022-08-19T02:40:09;16.30;99.90
21861;DHT22;11095;48.066;8.540;2022-08-19T02:42:35;16.20;99.90
21861;DHT22;11095;48.066;8.540;2022-08-19T02:45:01;16.20;99.90
21861;DHT22;11095;48.066;8.540;2022-08-19T02:47:27;16.20;99.90
21861;DHT22;11095;48.066;8.540;2022-08-19T02:49:53;16.20;99.90
21861;DHT22;11095;48.066;8.540;2022-08-19T02:52:18;16.20;99.90
21861;DHT22;11095;48.066;8.540;2022-08-19T02:54:44;16.20;99.90
21861;DHT22;11095;48.066;8.540;2022-08-19T02:57:10;16.20;99.90
21861;DHT22;11095;48.066;8.540;2022-08-19T02:59:35;16.20;99.90
21861;DHT22;11095;48.066;8.540;2022-08-19T03:02:01;16.20;99.90
21861;DHT22;11095;48.066;8.540;2022-08-19T03:04:27;16.20;99.90
21861;DHT22;11095;48.066;8.540;2022-08-19T03:06:53;16.30;99.90
21861;DHT22;11095;48.066;8.540;2022-08-19T03:09:19;16.30;99.90
21861;DHT22;11095;48.066;8.540;2022-08-19T03:11:45;16.30;99.90
21861;DHT22;11095;48.066;8.540;2022-08-19T03:14:12;16.30;99.90
21861;DHT22;11095;48.066;8.540;2022-08-19T03:16:47;16.30;99.90
21861;DHT22;11095;48.066;8.540;2022-08-19T03:19:15;16.30;99.90
21861;DHT22;11095;48.066;8.540;2022-08-19T03:21:43;16.30;99.90
21861;DHT22;11095;48.066;8.540;2022-08-19T03:24:10;16.30;99.90
21861;DHT22;11095;48.066;8.540;2022-08-19T03:26:51;16.30;99.90
21861;DHT22;11095;48.066;8.540;2022-08-19T03:29:18;16.30;99.90
21861;DHT22;11095;48.066;8.540;2022-08-19T03:31:45;16.30;99.90
21861;DHT22;11095;48.066;8.540;2022-08-19T03:34:16;16.30;99.90
21861;DHT22;11095;48.066;8.540;2022-08-19T03:36:43;16.30;99.90
21861;DHT22;11095;48.066;8.540;2022-08-19T03:39:10;16.30;99.90
21861;DHT22;11095;48.066;8.540;2022-08-19T03:41:38;16.30;99.90
21861;DHT22;11095;48.066;8.540;2022-08-19T03:44:05;16.30;99.90
21861;DHT22;11095;48.066;8.540;2022-08-19T03:46:32;16.20;99.90
21861;DHT22;11095;48.066;8.540;2022-08-19T03:49:00;16.20;99.90
21861;DHT22;11095;48.066;8.540;2022-08-19T03:51:29;16.20;99.90
21861;DHT22;11095;48.066;8.540;2022-08-19T03:53:57;16.20;99.90
21861;DHT22;11095;48.066;8.540;2022-08-19T03:56:24;16.20;99.90
21861;DHT22;11095;48.066;8.540;2022-08-19T03:58:54;16.20;99.90
21861;DHT22;11095;48.066;8.540;2022-08-19T04:01:22;16.20;99.90
21861;DHT22;11095;48.066;8.540;2022-08-19T04:03:48;16.20;99.90
21861;DHT22;11095;48.066;8.540;2022-08-19T04:06:26;16.20;99.90
21861;DHT22;11095;48.066;8.540;2022-08-19T04:08:54;16.20;99.90
21861;DHT22;11095;48.066;8.540;2022-08-19T04:11:23;16.20;99.90
21861;DHT22;11095;48.066;8.540;2022-08-19T04:13:51;16.20;99.90
21861;DHT22;11095;48.066;8.540;2022-08-19T04:16:21;16.20;99.90
21861;DHT22;11095;48.066;8.540;2022-08-19T04:18:55;16.30;99.90
21861;DHT22;11095;48.066;8.540;2022-08-19T04:21:24;16.20;99.90
21861;DHT22;11095;48.066;8.540;2022-08-19T04:23:51;16.20;99.90
21861;DHT22;11095;48.066;8.540;2022-08-19T04:26:21;16.20;99.90
21861;DHT22;11095;48.066;8.540;2022-08-19T04:28:47;16.20;99.90
21861;DHT22;11095;48.066;8.540;2022-08-19T04:31:19;16.20;99.90
21861;DHT22;11095;48.066;8.540;2022-08-19T04:33:45;16.20;99.90
21861;DHT22;11095;48.066;8.540;2022-08-19T04:36:21;16.20;99.90
21861;DHT22;11095;48.066;8.540;2022-08-19T04:38:48;16.30;99.90
21861;DHT22;11095;48.066;8.540;2022-08-19T04:41:14;16.30;99.90
21861;DHT22;11095;48.066;8.540;2022-08-19T04:43:59;16.30;99.90
21861;DHT22;11095;48.066;8.540;2022-08-19T04:46:25;16.40;99.90
21861;DHT22;11095;48.066;8.540;2022-08-19T04:48:51;16.40;99.90
21861;DHT22;11095;48.066;8.540;2022-08-19T04:51:17;16.40;99.90
21861;DHT22;11095;48.066;8.540;2022-08-19T04:53:43;16.40;99.90
21861;DHT22;11095;48.066;8.540;2022-08-19T04:56:14;16.30;99.90
21861;DHT22;11095;48.066;8.540;2022-08-19T04:58:42;16.40;99.90
21861;DHT22;11095;48.066;8.540;2022-08-19T05:01:12;16.40;99.90
21861;DHT22;11095;48.066;8.540;2022-08-19T05:03:38;16.40;99.90
21861;DHT22;11095;48.066;8.540;2022-08-19T05:06:05;16.40;99.90
21861;DHT22;11095;48.066;8.540;2022-08-19T05:08:34;16.40;99.90
21861;DHT22;11095;48.066;8.540;2022-08-19T05:11:00;16.40;99.90
21861;DHT22;11095;48.066;8.540;2022-08-19T05:13:25;16.40;99.90
21861;DHT22;11095;48.066;8.540;2022-08-19T05:15:58;16.40;99.90
21861;DHT22;11095;48.066;8.540;2022-08-19T05:18:25;16.30;99.90
21861;DHT22;11095;48.066;8.540;2022-08-19T05:21:12;16.40;99.90
21861;DHT22;11095;48.066;8.540;2022-08-19T05:23:57;16.40;99.90
21861;DHT22;11095;48.066;8.540;2022-08-19T05:26:24;16.40;99.90
21861;DHT22;11095;48.066;8.540;2022-08-19T05:28:52;16.40;99.90
21861;DHT22;11095;48.066;8.540;2022-08-19T05:31:17;16.40;99.90
21861;DHT22;11095;48.066;8.540;2022-08-19T05:33:43;16.50;99.90
21861;DHT22;11095;48.066;8.540;2022-08-19T05:36:09;16.50;99.90
21861;DHT22;11095;48.066;8.540;2022-08-19T05:38:35;16.50;99.90
21861;DHT22;11095;48.066;8.540;2022-08-19T05:41:06;16.40;99.90
21861;DHT22;11095;48.066;8.540;2022-08-19T05:43:33;16.40;99.90
21861;DHT22;11095;48.066;8.540;2022-08-19T05:45:58;16.40;99.90
21861;DHT22;11095;48.066;8.540;2022-08-19T05:48:24;16.40;99.90
21861;DHT22;11095;48.066;8.540;2022-08-19T05:50:50;16.50;99.90
21861;DHT22;11095;48.066;8.540;2022-08-19T05:53:17;16.50;99.90
21861;DHT22;11095;48.066;8.540;2022-08-19T05:55:42;16.50;99.90
21861;DHT22;11095;48.066;8.540;2022-08-19T05:58:08;16.60;99.90
21861;DHT22;11095;48.066;8.540;2022-08-19T06:00:35;16.60;99.90
21861;DHT22;11095;48.066;8.540;2022-08-19T06:03:01;16.60;99.90
21861;DHT22;11095;48.066;8.540;2022-08-19T06:05:32;16.60;99.90
21861;DHT22;11095;48.066;8.540;2022-08-19T06:07:58;16.50;99.90
21861;DHT22;11095;48.066;8.540;2022-08-19T06:10:27;16.50;99.90
21861;DHT22;11095;48.066;8.540;2022-08-19T06:12:53;16.50;99.90
21861;DHT22;11095;48.066;8.540;2022-08-19T06:15:19;16.50;99.90
21861;DHT22;11095;48.066;8.540;2022-08-19T06:17:47;16.40;99.90
21861;DHT22;11095;48.066;8.540;2022-08-19T06:20:16;16.50;99.90
21861;DHT22;11095;48.066;8.540;2022-08-19T06:22:48;16.50;99.90
21861;DHT22;11095;48.066;8.540;2022-08-19T06:25:17;16.50;99.90
21861;DHT22;11095;48.066;8.540;2022-08-19T06:27:46;16.50;99.90
21861;DHT22;11095;48.066;8.540;2022-08-19T06:30:12;16.50;99.90
21861;DHT22;11095;48.066;8.540;2022-08-19T06:32:48;16.50;99.90
21861;DHT22;11095;48.066;8.540;2022-08-19T06:35:14;16.50;99.90
21861;DHT22;11095;48.066;8.540;2022-08-19T06:37:40;16.50;99.90
21861;DHT22;11095;48.066;8.540;2022-08-19T06:40:07;16.50;99.90
21861;DHT22;11095;48.066;8.540;2022-08-19T06:42:34;16.60;99.90
21861;DHT22;11095;48.066;8.540;2022-08-19T06:45:00;16.60;99.90
21861;DHT22;11095;48.066;8.540;2022-08-19T06:47:29;16.70;99.90
21861;DHT22;11095;48.066;8.540;2022-08-19T06:49:57;16.80;99.90
21861;DHT22;11095;48.066;8.540;2022-08-19T06:52:52;16.80;99.90
21861;DHT22;11095;48.066;8.540;2022-08-19T06:55:17;16.80;99.90
21861;DHT22;11095;48.066;8.540;2022-08-19T06:57:45;17.00;99.90
21861;DHT22;11095;48.066;8.540;2022-08-19T07:00:12;17.10;99.90
21861;DHT22;11095;48.066;8.540;2022-08-19T07:02:44;17.10;99.90
21861;DHT22;11095;48.066;8.540;2022-08-19T07:05:10;17.20;99.90
21861;DHT22;11095;48.066;8.540;2022-08-19T07:07:36;17.30;99.90
21861;DHT22;11095;48.066;8.540;2022-08-19T07:10:03;17.40;99.90
21861;DHT22;11095;48.066;8.540;2022-08-19T07:12:31;17.60;99.90
21861;DHT22;11095;48.066;8.540;2022-08-19T07:15:00;17.70;99.90
21861;DHT22;11095;48.066;8.540;2022-08-19T07:17:27;17.70;99.90
21861;DHT22;11095;48.066;8.540;2022-08-19T07:19:53;17.80;99.90
21861;DHT22;11095;48.066;8.540;2022-08-19T07:22:18;17.80;99.90
21861;DHT22;11095;48.066;8.540;2022-08-19T07:24:45;17.80;99.90
21861;DHT22;11095;48.066;8.540;2022-08-19T07:27:13;17.80;99.90
21861;DHT22;11095;48.066;8.540;2022-08-19T07:29:39;17.80;99.90
21861;DHT22;11095;48.066;8.540;2022-08-19T07:32:05;17.80;99.90
21861;DHT22;11095;48.066;8.540;2022-08-19T07:34:32;17.90;99.90
21861;DHT22;11095;48.066;8.540;2022-08-19T07:37:06;17.80;99.90
21861;DHT22;11095;48.066;8.540;2022-08-19T07:39:34;17.90;99.90
21861;DHT22;11095;48.066;8.540;2022-08-19T07:42:07;18.00;99.90
21861;DHT22;11095;48.066;8.540;2022-08-19T07:44:33;18.20;99.90
21861;DHT22;11095;48.066;8.540;2022-08-19T07:47:00;18.40;99.90
21861;DHT22;11095;48.066;8.540;2022-08-19T07:49:27;18.30;99.90
21861;DHT22;11095;48.066;8.540;2022-08-19T07:51:57;18.10;99.90
21861;DHT22;11095;48.066;8.540;2022-08-19T07:54:23;18.00;99.90
21861;DHT22;11095;48.066;8.540;2022-08-19T07:56:50;18.10;99.90
21861;DHT22;11095;48.066;8.540;2022-08-19T07:59:17;18.10;99.90
21861;DHT22;11095;48.066;8.540;2022-08-19T08:01:43;18.20;99.90
21861;DHT22;11095;48.066;8.540;2022-08-19T08:04:10;18.20;99.90
21861;DHT22;11095;48.066;8.540;2022-08-19T08:07:11;18.30;99.90
21861;DHT22;11095;48.066;8.540;2022-08-19T08:09:55;18.50;99.90
21861;DHT22;11095;48.066;8.540;2022-08-19T08:12:27;18.40;99.90
21861;DHT22;11095;48.066;8.540;2022-08-19T08:14:58;18.40;99.90
21861;DHT22;11095;48.066;8.540;2022-08-19T08:17:26;18.30;99.90
21861;DHT22;11095;48.066;8.540;2022-08-19T08:19:52;18.30;99.90
21861;DHT22;11095;48.066;8.540;2022-08-19T08:22:20;18.40;99.90
21861;DHT22;11095;48.066;8.540;2022-08-19T08:25:07;18.50;99.90
21861;DHT22;11095;48.066;8.540;2022-08-19T08:27:37;18.50;99.90
21861;DHT22;11095;48.066;8.540;2022-08-19T08:30:06;18.60;99.90
21861;DHT22;11095;48.066;8.540;2022-08-19T08:32:38;18.70;99.90
21861;DHT22;11095;48.066;8.540;2022-08-19T08:35:10;18.60;99.90
21861;DHT22;11095;48.066;8.540;2022-08-19T08:37:37;18.70;99.90
21861;DHT22;11095;48.066;8.540;2022-08-19T08:40:06;18.90;99.90
21861;DHT22;11095;48.066;8.540;2022-08-19T08:42:40;19.10;99.90
21861;DHT22;11095;48.066;8.540;2022-08-19T08:45:13;19.20;99.90
21861;DHT22;11095;48.066;8.540;2022-08-19T08:47:45;19.30;99.90
21861;DHT22;11095;48.066;8.540;2022-08-19T08:50:21;19.30;99.90
21861;DHT22;11095;48.066;8.540;2022-08-19T08:52:52;19.40;99.90
21861;DHT22;11095;48.066;8.540;2022-08-19T08:55:22;19.50;99.90
21861;DHT22;11095;48.066;8.540;2022-08-19T09:00:21;19.30;99.90
21861;DHT22;11095;48.066;8.540;2022-08-19T09:02:47;19.20;99.90
21861;DHT22;11095;48.066;8.540;2022-08-19T09:05:13;19.10;99.90
21861;DHT22;11095;48.066;8.540;2022-08-19T09:07:53;19.10;99.90
21861;DHT22;11095;48.066;8.540;2022-08-19T09:10:38;19.10;99.90
21861;DHT22;11095;48.066;8.540;2022-08-19T09:15:46;19.10;99.90
21861;DHT22;11095;48.066;8.540;2022-08-19T09:18:14;19.00;99.90
21861;DHT22;11095;48.066;8.540;2022-08-19T09:20:39;19.00;99.90
21861;DHT22;11095;48.066;8.540;2022-08-19T09:23:05;19.00;99.90
21861;DHT22;11095;48.066;8.540;2022-08-19T09:25:31;18.90;99.90
21861;DHT22;11095;48.066;8.540;2022-08-19T09:28:00;18.70;99.90
21861;DHT22;11095;48.066;8.540;2022-08-19T09:30:32;18.60;99.90
21861;DHT22;11095;48.066;8.540;2022-08-19T09:32:58;18.60;99.90
21861;DHT22;11095;48.066;8.540;2022-08-19T09:35:27;18.60;99.90
21861;DHT22;11095;48.066;8.540;2022-08-19T09:37:55;18.40;99.90
21861;DHT22;11095;48.066;8.540;2022-08-19T09:40:20;18.40;99.90
21861;DHT22;11095;48.066;8.540;2022-08-19T09:42:47;18.40;99.90
21861;DHT22;11095;48.066;8.540;2022-08-19T09:45:14;18.40;99.90
21861;DHT22;11095;48.066;8.540;2022-08-19T09:47:40;18.40;99.90
21861;DHT22;11095;48.066;8.540;2022-08-19T09:50:07;18.30;99.90
21861;DHT22;11095;48.066;8.540;2022-08-19T09:52:33;18.30;99.90
21861;DHT22;11095;48.066;8.540;2022-08-19T09:55:04;18.30;99.90
21861;DHT22;11095;48.066;8.540;2022-08-19T09:57:29;18.30;99.90
21861;DHT22;11095;48.066;8.540;2022-08-19T09:59:55;18.30;99.90
21861;DHT22;11095;48.066;8.540;2022-08-19T10:02:21;18.30;99.90
21861;DHT22;11095;48.066;8.540;2022-08-19T10:04:46;18.30;99.90
21861;DHT22;11095;48.066;8.540;2022-08-19T10:07:30;18.20;99.90
21861;DHT22;11095;48.066;8.540;2022-08-19T10:09:56;18.20;99.90
21861;DHT22;11095;48.066;8.540;2022-08-19T10:12:22;18.20;99.90
21861;DHT22;11095;48.066;8.540;2022-08-19T10:14:48;18.20;99.90
21861;DHT22;11095;48.066;8.540;2022-08-19T10:17:16;18.10;99.90
21861;DHT22;11095;48.066;8.540;2022-08-19T10:19:43;18.10;99.90
21861;DHT22;11095;48.066;8.540;2022-08-19T10:22:08;18.10;99.90
21861;DHT22;11095;48.066;8.540;2022-08-19T10:24:36;18.10;99.90
21861;DHT22;11095;48.066;8.540;2022-08-19T10:27:02;18.00;99.90
21861;DHT22;11095;48.066;8.540;2022-08-19T10:29:32;18.10;99.90
21861;DHT22;11095;48.066;8.540;2022-08-19T10:32:05;18.10;99.90
21861;DHT22;11095;48.066;8.540;2022-08-19T10:34:32;18.10;99.90
21861;DHT22;11095;48.066;8.540;2022-08-19T10:36:59;18.10;99.90
21861;DHT22;11095;48.066;8.540;2022-08-19T10:39:25;18.20;99.90
21861;DHT22;11095;48.066;8.540;2022-08-19T10:41:53;18.20;99.90
21861;DHT22;11095;48.066;8.540;2022-08-19T10:44:21;18.30;99.90
21861;DHT22;11095;48.066;8.540;2022-08-19T10:46:48;18.30;99.90
21861;DHT22;11095;48.066;8.540;2022-08-19T10:49:14;18.30;99.90
21861;DHT22;11095;48.066;8.540;2022-08-19T10:51:41;18.30;99.90
21861;DHT22;11095;48.066;8.540;2022-08-19T10:54:26;18.30;99.90
21861;DHT22;11095;48.066;8.540;2022-08-19T10:57:12;18.30;99.90
21861;DHT22;11095;48.066;8.540;2022-08-19T10:59:38;18.40;99.90
21861;DHT22;11095;48.066;8.540;2022-08-19T11:02:05;18.40;99.90
21861;DHT22;11095;48.066;8.540;2022-08-19T11:04:32;18.50;99.90
21861;DHT22;11095;48.066;8.540;2022-08-19T11:06:58;18.70;99.90
21861;DHT22;11095;48.066;8.540;2022-08-19T11:09:25;18.70;99.90
21861;DHT22;11095;48.066;8.540;2022-08-19T11:11:53;18.80;99.90
21861;DHT22;11095;48.066;8.540;2022-08-19T11:14:20;18.90;99.90
21861;DHT22;11095;48.066;8.540;2022-08-19T11:16:48;18.90;99.90
21861;DHT22;11095;48.066;8.540;2022-08-19T11:19:14;18.90;99.90
21861;DHT22;11095;48.066;8.540;2022-08-19T11:21:44;19.00;99.90
21861;DHT22;11095;48.066;8.540;2022-08-19T11:24:13;19.10;99.90
21861;DHT22;11095;48.066;8.540;2022-08-19T11:26:41;19.30;99.90
21861;DHT22;11095;48.066;8.540;2022-08-19T11:29:08;19.40;99.90
21861;DHT22;11095;48.066;8.540;2022-08-19T11:31:40;19.50;99.90
21861;DHT22;11095;48.066;8.540;2022-08-19T11:34:08;19.70;99.90
21861;DHT22;11095;48.066;8.540;2022-08-19T11:36:37;19.80;99.90
21861;DHT22;11095;48.066;8.540;2022-08-19T11:39:05;19.90;99.90
21861;DHT22;11095;48.066;8.540;2022-08-19T11:41:31;20.00;99.90
21861;DHT22;11095;48.066;8.540;2022-08-19T11:43:57;20.20;99.90
21861;DHT22;11095;48.066;8.540;2022-08-19T11:46:25;20.20;99.90
21861;DHT22;11095;48.066;8.540;2022-08-19T11:48:51;20.20;99.90
21861;DHT22;11095;48.066;8.540;2022-08-19T11:51:19;20.30;99.90
21861;DHT22;11095;48.066;8.540;2022-08-19T11:53:45;20.20;99.90
21861;DHT22;11095;48.066;8.540;2022-08-19T11:56:11;20.20;99.90
21861;DHT22;11095;48.066;8.540;2022-08-19T11:58:37;20.20;99.90
21861;DHT22;11095;48.066;8.540;2022-08-19T12:01:11;20.20;99.90
21861;DHT22;11095;48.066;8.540;2022-08-19T12:03:38;20.20;99.90
21861;DHT22;11095;48.066;8.540;2022-08-19T12:06:08;20.20;99.90
21861;DHT22;11095;48.066;8.540;2022-08-19T12:08:36;20.20;99.90
21861;DHT22;11095;48.066;8.540;2022-08-19T12:11:02;20.20;99.90
21861;DHT22;11095;48.066;8.540;2022-08-19T12:13:29;20.10;99.90
21861;DHT22;11095;48.066;8.540;2022-08-19T12:15:56;20.00;99.90
21861;DHT22;11095;48.066;8.540;2022-08-19T12:18:22;20.00;99.90
21861;DHT22;11095;48.066;8.540;2022-08-19T12:20:50;20.00;99.90
21861;DHT22;11095;48.066;8.540;2022-08-19T12:23:16;20.00;99.90
21861;DHT22;11095;48.066;8.540;2022-08-19T12:25:47;19.90;99.90
21861;DHT22;11095;48.066;8.540;2022-08-19T12:28:20;19.90;99.90
21861;DHT22;11095;48.066;8.540;2022-08-19T12:30:48;19.80;99.90
21861;DHT22;11095;48.066;8.540;2022-08-19T12:33:14;19.70;99.90
21861;DHT22;11095;48.066;8.540;2022-08-19T12:35:41;19.70;99.90
21861;DHT22;11095;48.066;8.540;2022-08-19T12:38:08;19.60;99.90
21861;DHT22;11095;48.066;8.540;2022-08-19T12:40:34;19.50;99.90
21861;DHT22;11095;48.066;8.540;2022-08-19T12:42:59;19.50;99.90
21861;DHT22;11095;48.066;8.540;2022-08-19T12:45:25;19.40;99.90
21861;DHT22;11095;48.066;8.540;2022-08-19T12:47:50;19.30;99.90
21861;DHT22;11095;48.066;8.540;2022-08-19T12:50:18;19.30;99.90
21861;DHT22;11095;48.066;8.540;2022-08-19T12:52:45;19.40;99.90
21861;DHT22;11095;48.066;8.540;2022-08-19T12:55:10;19.40;99.90
21861;DHT22;11095;48.066;8.540;2022-08-19T12:57:37;19.50;99.90
21861;DHT22;11095;48.066;8.540;2022-08-19T13:00:06;19.50;99.90
21861;DHT22;11095;48.066;8.540;2022-08-19T13:02:37;19.60;99.90
21861;DHT22;11095;48.066;8.540;2022-08-19T13:05:04;19.60;99.90
21861;DHT22;11095;48.066;8.540;2022-08-19T13:07:31;19.60;99.90
21861;DHT22;11095;48.066;8.540;2022-08-19T13:09:57;19.70;99.90
21861;DHT22;11095;48.066;8.540;2022-08-19T13:12:23;19.70;99.90
21861;DHT22;11095;48.066;8.540;2022-08-19T13:14:55;19.70;99.90
21861;DHT22;11095;48.066;8.540;2022-08-19T13:17:21;19.70;99.90
21861;DHT22;11095;48.066;8.540;2022-08-19T13:19:47;19.70;99.90
21861;DHT22;11095;48.066;8.540;2022-08-19T13:22:13;19.70;99.90
21861;DHT22;11095;48.066;8.540;2022-08-19T13:24:39;19.70;99.90
21861;DHT22;11095;48.066;8.540;2022-08-19T13:27:04;19.60;99.90
21861;DHT22;11095;48.066;8.540;2022-08-19T13:29:30;19.70;99.90
21861;DHT22;11095;48.066;8.540;2022-08-19T13:32:14;19.70;99.90
21861;DHT22;11095;48.066;8.540;2022-08-19T13:34:58;19.80;99.90
21861;DHT22;11095;48.066;8.540;2022-08-19T13:37:24;19.80;99.90
21861;DHT22;11095;48.066;8.540;2022-08-19T13:40:19;19.90;99.90
21861;DHT22;11095;48.066;8.540;2022-08-19T13:42:49;19.90;99.90
21861;DHT22;11095;48.066;8.540;2022-08-19T13:45:17;20.00;99.90
21861;DHT22;11095;48.066;8.540;2022-08-19T13:47:46;20.00;99.90
21861;DHT22;11095;48.066;8.540;2022-08-19T13:50:14;20.10;99.90
21861;DHT22;11095;48.066;8.540;2022-08-19T13:52:40;20.10;99.90
21861;DHT22;11095;48.066;8.540;2022-08-19T13:55:06;20.20;99.90
21861;DHT22;11095;48.066;8.540;2022-08-19T13:57:33;20.20;99.90
21861;DHT22;11095;48.066;8.540;2022-08-19T14:00:00;20.30;99.90
21861;DHT22;11095;48.066;8.540;2022-08-19T14:02:26;20.40;99.90
21861;DHT22;11095;48.066;8.540;2022-08-19T14:04:52;20.40;99.90
21861;DHT22;11095;48.066;8.540;2022-08-19T14:07:18;20.30;99.90
21861;DHT22;11095;48.066;8.540;2022-08-19T14:09:43;20.30;99.90
21861;DHT22;11095;48.066;8.540;2022-08-19T14:12:09;20.30;99.90
21861;DHT22;11095;48.066;8.540;2022-08-19T14:14:39;20.40;99.90
21861;DHT22;11095;48.066;8.540;2022-08-19T14:17:08;20.40;99.90
21861;DHT22;11095;48.066;8.540;2022-08-19T14:19:34;20.40;99.90
21861;DHT22;11095;48.066;8.540;2022-08-19T14:22:00;20.40;99.90
21861;DHT22;11095;48.066;8.540;2022-08-19T14:24:26;20.30;99.90
21861;DHT22;11095;48.066;8.540;2022-08-19T14:26:52;20.40;99.90
21861;DHT22;11095;48.066;8.540;2022-08-19T14:29:18;20.40;99.90
21861;DHT22;11095;48.066;8.540;2022-08-19T14:31:43;20.50;99.90
21861;DHT22;11095;48.066;8.540;2022-08-19T14:34:09;20.70;99.90
21861;DHT22;11095;48.066;8.540;2022-08-19T14:36:36;20.80;99.90
21861;DHT22;11095;48.066;8.540;2022-08-19T14:39:03;20.80;99.90
21861;DHT22;11095;48.066;8.540;2022-08-19T14:41:28;21.00;99.90
21861;DHT22;11095;48.066;8.540;2022-08-19T14:43:55;21.10;99.90
21861;DHT22;11095;48.066;8.540;2022-08-19T14:46:24;21.20;99.90
21861;DHT22;11095;48.066;8.540;2022-08-19T14:48:50;21.20;99.90
21861;DHT22;11095;48.066;8.540;2022-08-19T14:51:16;21.30;99.90
21861;DHT22;11095;48.066;8.540;2022-08-19T14:53:43;21.40;99.90
21861;DHT22;11095;48.066;8.540;2022-08-19T14:56:14;21.50;99.90
21861;DHT22;11095;48.066;8.540;2022-08-19T14:58:41;21.60;99.90
21861;DHT22;11095;48.066;8.540;2022-08-19T15:01:08;21.70;99.90
21861;DHT22;11095;48.066;8.540;2022-08-19T15:03:34;21.80;99.90
21861;DHT22;11095;48.066;8.540;2022-08-19T15:06:02;21.80;99.90
21861;DHT22;11095;48.066;8.540;2022-08-19T15:08:30;21.80;99.90
21861;DHT22;11095;48.066;8.540;2022-08-19T15:10:57;21.80;99.90
21861;DHT22;11095;48.066;8.540;2022-08-19T15:13:24;21.70;99.90
21861;DHT22;11095;48.066;8.540;2022-08-19T15:15:52;21.70;99.90
21861;DHT22;11095;48.066;8.540;2022-08-19T15:18:17;21.70;99.90
21861;DHT22;11095;48.066;8.540;2022-08-19T15:20:46;21.70;99.90
21861;DHT22;11095;48.066;8.540;2022-08-19T15:23:13;21.70;99.90
21861;DHT22;11095;48.066;8.540;2022-08-19T15:25:39;21.80;99.90
21861;DHT22;11095;48.066;8.540;2022-08-19T15:28:07;21.80;99.90
21861;DHT22;11095;48.066;8.540;2022-08-19T15:30:34;21.80;99.90
21861;DHT22;11095;48.066;8.540;2022-08-19T15:33:01;21.70;99.90
21861;DHT22;11095;48.066;8.540;2022-08-19T15:35:27;21.60;99.90
21861;DHT22;11095;48.066;8.540;2022-08-19T15:37:54;21.50;99.90
21861;DHT22;11095;48.066;8.540;2022-08-19T15:40:21;21.40;99.90
21861;DHT22;11095;48.066;8.540;2022-08-19T15:42:47;21.40;99.90